sensor_id;sensor_type;location;lat;lon;timestamp;pressure;altitude;pressure_sealevel;temperature;humidity
77823;BME280;67013;49.730;17.292;2023-04-24T00:01:35;97384.96;;;16.14;42.76
77823;BME280;67013;49.730;17.292;2023-04-24T00:04:05;97381.05;;;16.15;42.48
77823;BME280;67013;49.730;17.292;2023-04-24T00:06:35;97379.80;;;16.15;42.20
77823;BME280;67013;49.730;17.292;2023-04-24T00:09:05;97376.02;;;16.14;41.79
77823;BME280;67013;49.730;17.292;2023-04-24T00:11:34;97374.89;;;16.14;41.42
77823;BME280;67013;49.730;17.292;2023-04-24T00:14:04;97371.74;;;16.13;41.45
77823;BME280;67013;49.730;17.292;2023-04-24T00:16:33;97366.22;;;16.13;41.32
77823;BME280;67013;49.730;17.292;2023-04-24T00:19:03;97360.60;;;16.11;41.21
77823;BME280;67013;49.730;17.292;2023-04-24T00:21:34;97363.30;;;16.11;41.20
77823;BME280;67013;49.730;17.292;2023-04-24T00:24:04;97360.70;;;16.09;40.77
77823;BME280;67013;49.730;17.292;2023-04-24T00:26:34;97356.96;;;16.08;40.73
77823;BME280;67013;49.730;17.292;2023-04-24T00:29:03;97354.95;;;16.07;40.79
77823;BME280;67013;49.730;17.292;2023-04-24T00:31:33;97351.46;;;16.05;40.62
77823;BME280;67013;49.730;17.292;2023-04-24T00:34:04;97352.52;;;16.03;40.53
77823;BME280;67013;49.730;17.292;2023-04-24T00:36:33;97351.66;;;16.02;40.30
77823;BME280;67013;49.730;17.292;2023-04-24T00:39:03;97347.04;;;16.01;40.21
77823;BME280;67013;49.730;17.292;2023-04-24T00:41:33;97347.90;;;16.00;40.26
77823;BME280;67013;49.730;17.292;2023-04-24T00:44:02;97347.44;;;15.99;40.28
77823;BME280;67013;49.730;17.292;2023-04-24T00:46:32;97347.96;;;15.97;40.19
77823;BME280;67013;49.730;17.292;2023-04-24T00:49:03;97345.86;;;15.96;40.19
77823;BME280;67013;49.730;17.292;2023-04-24T00:51:34;97348.04;;;15.94;40.17
77823;BME280;67013;49.730;17.292;2023-04-24T00:54:05;97344.79;;;15.91;40.07
77823;BME280;67013;49.730;17.292;2023-04-24T00:56:35;97341.77;;;15.88;40.26
77823;BME280;67013;49.730;17.292;2023-04-24T00:59:05;97341.47;;;15.87;40.45
77823;BME280;67013;49.730;17.292;2023-04-24T01:01:36;97337.63;;;15.83;40.34
77823;BME280;67013;49.730;17.292;2023-04-24T01:04:05;97337.77;;;15.80;40.18
77823;BME280;67013;49.730;17.292;2023-04-24T01:06:35;97337.87;;;15.76;40.06
77823;BME280;67013;49.730;17.292;2023-04-24T01:09:07;97333.70;;;15.71;40.04
77823;BME280;67013;49.730;17.292;2023-04-24T01:11:37;97335.77;;;15.67;39.94
77823;BME280;67013;49.730;17.292;2023-04-24T01:14:07;97333.15;;;15.62;40.15
77823;BME280;67013;49.730;17.292;2023-04-24T01:16:37;97333.92;;;15.58;39.96
77823;BME280;67013;49.730;17.292;2023-04-24T01:19:07;97332.11;;;15.54;39.97
77823;BME280;67013;49.730;17.292;2023-04-24T01:21:39;97327.83;;;15.49;40.05
77823;BME280;67013;49.730;17.292;2023-04-24T01:24:09;97329.27;;;15.46;40.00
77823;BME280;67013;49.730;17.292;2023-04-24T01:26:39;97329.23;;;15.42;40.11
77823;BME280;67013;49.730;17.292;2023-04-24T01:29:09;97328.06;;;15.38;40.19
77823;BME280;67013;49.730;17.292;2023-04-24T01:31:39;97326.74;;;15.34;40.22
77823;BME280;67013;49.730;17.292;2023-04-24T01:34:08;97322.91;;;15.30;40.38
77823;BME280;67013;49.730;17.292;2023-04-24T01:36:39;97326.17;;;15.26;40.31
77823;BME280;67013;49.730;17.292;2023-04-24T01:39:09;97326.83;;;15.22;40.40
77823;BME280;67013;49.730;17.292;2023-04-24T01:41:38;97321.21;;;15.19;40.38
77823;BME280;67013;49.730;17.292;2023-04-24T01:44:08;97322.75;;;15.16;40.60
77823;BME280;67013;49.730;17.292;2023-04-24T01:46:38;97322.38;;;15.13;40.47
77823;BME280;67013;49.730;17.292;2023-04-24T01:49:08;97318.45;;;15.11;40.52
77823;BME280;67013;49.730;17.292;2023-04-24T01:51:37;97318.02;;;15.06;40.53
77823;BME280;67013;49.730;17.292;2023-04-24T01:54:07;97315.29;;;15.03;40.62
77823;BME280;67013;49.730;17.292;2023-04-24T01:56:37;97310.23;;;14.99;40.67
77823;BME280;67013;49.730;17.292;2023-04-24T01:59:10;97310.39;;;14.96;40.79
77823;BME280;67013;49.730;17.292;2023-04-24T02:01:40;97313.90;;;14.95;40.83
77823;BME280;67013;49.730;17.292;2023-04-24T02:04:09;97308.41;;;14.92;40.82
77823;BME280;67013;49.730;17.292;2023-04-24T02:06:39;97307.65;;;14.89;40.96
77823;BME280;67013;49.730;17.292;2023-04-24T02:09:08;97308.30;;;14.86;40.95
77823;BME280;67013;49.730;17.292;2023-04-24T02:11:38;97310.55;;;14.84;41.12
77823;BME280;67013;49.730;17.292;2023-04-24T02:14:08;97307.69;;;14.80;41.37
77823;BME280;67013;49.730;17.292;2023-04-24T02:16:37;97304.23;;;14.77;41.36
77823;BME280;67013;49.730;17.292;2023-04-24T02:19:07;97302.07;;;14.74;41.42
77823;BME280;67013;49.730;17.292;2023-04-24T02:21:36;97301.12;;;14.71;41.50
77823;BME280;67013;49.730;17.292;2023-04-24T02:24:06;97301.30;;;14.70;41.60
77823;BME280;67013;49.730;17.292;2023-04-24T02:26:35;97302.52;;;14.70;41.75
77823;BME280;67013;49.730;17.292;2023-04-24T02:29:05;97302.52;;;14.70;41.88
77823;BME280;67013;49.730;17.292;2023-04-24T02:31:34;97299.77;;;14.71;41.87
77823;BME280;67013;49.730;17.292;2023-04-24T02:34:04;97295.53;;;14.71;41.82
77823;BME280;67013;49.730;17.292;2023-04-24T02:36:33;97295.96;;;14.72;41.92
77823;BME280;67013;49.730;17.292;2023-04-24T02:39:03;97293.05;;;14.73;41.95
77823;BME280;67013;49.730;17.292;2023-04-24T02:41:33;97290.30;;;14.74;41.98
77823;BME280;67013;49.730;17.292;2023-04-24T02:44:02;97287.04;;;14.75;42.02
77823;BME280;67013;49.730;17.292;2023-04-24T02:46:32;97282.72;;;14.77;42.00
77823;BME280;67013;49.730;17.292;2023-04-24T02:49:01;97282.36;;;14.78;41.97
77823;BME280;67013;49.730;17.292;2023-04-24T02:51:30;97279.12;;;14.81;41.95
77823;BME280;67013;49.730;17.292;2023-04-24T02:54:00;97275.80;;;14.83;42.09
77823;BME280;67013;49.730;17.292;2023-04-24T02:56:29;97274.52;;;14.85;42.08
77823;BME280;67013;49.730;17.292;2023-04-24T02:58:59;97273.29;;;14.87;41.90
77823;BME280;67013;49.730;17.292;2023-04-24T03:01:28;97271.93;;;14.88;41.99
77823;BME280;67013;49.730;17.292;2023-04-24T03:03:58;97267.94;;;14.89;41.95
77823;BME280;67013;49.730;17.292;2023-04-24T03:06:27;97271.05;;;14.91;41.97
77823;BME280;67013;49.730;17.292;2023-04-24T03:08:57;97269.32;;;14.91;42.11
77823;BME280;67013;49.730;17.292;2023-04-24T03:11:26;97269.55;;;14.92;42.04
77823;BME280;67013;49.730;17.292;2023-04-24T03:13:56;97270.20;;;14.92;42.15
77823;BME280;67013;49.730;17.292;2023-04-24T03:16:25;97271.23;;;14.93;42.11
77823;BME280;67013;49.730;17.292;2023-04-24T03:18:55;97275.55;;;14.93;42.12
77823;BME280;67013;49.730;17.292;2023-04-24T03:21:24;97272.34;;;14.94;42.14
77823;BME280;67013;49.730;17.292;2023-04-24T03:23:54;97275.42;;;14.94;42.22
77823;BME280;67013;49.730;17.292;2023-04-24T03:26:24;97276.11;;;14.94;42.25
77823;BME280;67013;49.730;17.292;2023-04-24T03:28:54;97273.19;;;14.94;42.24
77823;BME280;67013;49.730;17.292;2023-04-24T03:31:24;97277.85;;;14.95;42.38
77823;BME280;67013;49.730;17.292;2023-04-24T03:33:54;97279.29;;;14.94;42.34
77823;BME280;67013;49.730;17.292;2023-04-24T03:36:23;97279.85;;;14.94;42.43
77823;BME280;67013;49.730;17.292;2023-04-24T03:38:56;97285.73;;;14.93;42.68
77823;BME280;67013;49.730;17.292;2023-04-24T03:41:24;97283.50;;;14.92;42.77
77823;BME280;67013;49.730;17.292;2023-04-24T03:43:53;97284.98;;;14.90;43.17
77823;BME280;67013;49.730;17.292;2023-04-24T03:46:23;97280.50;;;14.88;43.82
77823;BME280;67013;49.730;17.292;2023-04-24T03:48:52;97280.15;;;14.85;44.50
77823;BME280;67013;49.730;17.292;2023-04-24T03:51:22;97275.44;;;14.81;45.12
77823;BME280;67013;49.730;17.292;2023-04-24T03:53:53;97270.90;;;14.77;45.34
77823;BME280;67013;49.730;17.292;2023-04-24T03:56:23;97271.89;;;14.75;45.89
77823;BME280;67013;49.730;17.292;2023-04-24T03:58:53;97270.67;;;14.71;46.57
77823;BME280;67013;49.730;17.292;2023-04-24T04:01:22;97275.09;;;14.69;46.87
77823;BME280;67013;49.730;17.292;2023-04-24T04:03:52;97281.13;;;14.67;47.18
77823;BME280;67013;49.730;17.292;2023-04-24T04:06:22;97282.82;;;14.66;47.38
77823;BME280;67013;49.730;17.292;2023-04-24T04:08:51;97282.52;;;14.65;47.58
77823;BME280;67013;49.730;17.292;2023-04-24T04:11:20;97286.98;;;14.65;47.79
77823;BME280;67013;49.730;17.292;2023-04-24T04:13:50;97292.83;;;14.64;48.06
77823;BME280;67013;49.730;17.292;2023-04-24T04:16:19;97293.88;;;14.63;48.51
77823;BME280;67013;49.730;17.292;2023-04-24T04:18:49;97293.98;;;14.60;49.23
77823;BME280;67013;49.730;17.292;2023-04-24T04:21:21;97297.19;;;14.56;49.74
77823;BME280;67013;49.730;17.292;2023-04-24T04:23:50;97292.95;;;14.52;50.01
77823;BME280;67013;49.730;17.292;2023-04-24T04:26:20;97292.21;;;14.47;50.48
77823;BME280;67013;49.730;17.292;2023-04-24T04:28:53;97288.20;;;14.43;50.85
77823;BME280;67013;49.730;17.292;2023-04-24T04:31:23;97283.76;;;14.41;51.42
77823;BME280;67013;49.730;17.292;2023-04-24T04:33:53;97280.70;;;14.38;52.78
77823;BME280;67013;49.730;17.292;2023-04-24T04:36:22;97280.08;;;14.36;53.87
77823;BME280;67013;49.730;17.292;2023-04-24T04:38:52;97280.41;;;14.38;54.71
77823;BME280;67013;49.730;17.292;2023-04-24T04:41:22;97277.94;;;14.33;54.97
77823;BME280;67013;49.730;17.292;2023-04-24T04:43:53;97280.02;;;14.27;55.39
77823;BME280;67013;49.730;17.292;2023-04-24T04:46:23;97280.64;;;14.21;55.30
77823;BME280;67013;49.730;17.292;2023-04-24T04:48:54;97280.23;;;14.18;55.51
77823;BME280;67013;49.730;17.292;2023-04-24T04:51:24;97282.75;;;14.16;55.68
77823;BME280;67013;49.730;17.292;2023-04-24T04:53:54;97281.42;;;14.13;55.68
77823;BME280;67013;49.730;17.292;2023-04-24T04:56:23;97282.83;;;14.11;55.85
77823;BME280;67013;49.730;17.292;2023-04-24T04:58:53;97286.41;;;14.10;56.07
77823;BME280;67013;49.730;17.292;2023-04-24T05:01:23;97283.56;;;14.09;56.14
77823;BME280;67013;49.730;17.292;2023-04-24T05:03:53;97283.23;;;14.07;56.27
77823;BME280;67013;49.730;17.292;2023-04-24T05:06:23;97287.91;;;14.06;56.31
77823;BME280;67013;49.730;17.292;2023-04-24T05:08:52;97290.14;;;14.05;56.47
77823;BME280;67013;49.730;17.292;2023-04-24T05:11:25;97294.86;;;14.05;56.59
77823;BME280;67013;49.730;17.292;2023-04-24T05:13:54;97294.73;;;14.05;57.09
77823;BME280;67013;49.730;17.292;2023-04-24T05:16:24;97294.59;;;14.04;57.59
77823;BME280;67013;49.730;17.292;2023-04-24T05:18:53;97296.10;;;14.05;57.56
77823;BME280;67013;49.730;17.292;2023-04-24T05:21:23;97295.98;;;14.06;58.17
77823;BME280;67013;49.730;17.292;2023-04-24T05:23:53;97301.62;;;14.07;57.87
77823;BME280;67013;49.730;17.292;2023-04-24T05:26:22;97298.96;;;14.08;58.04
77823;BME280;67013;49.730;17.292;2023-04-24T05:28:52;97298.67;;;14.07;58.07
77823;BME280;67013;49.730;17.292;2023-04-24T05:31:21;97299.09;;;14.05;58.42
77823;BME280;67013;49.730;17.292;2023-04-24T05:33:51;97294.16;;;14.03;58.20
77823;BME280;67013;49.730;17.292;2023-04-24T05:36:20;97290.00;;;14.03;58.17
77823;BME280;67013;49.730;17.292;2023-04-24T05:38:50;97284.62;;;14.03;58.08
77823;BME280;67013;49.730;17.292;2023-04-24T05:41:19;97281.70;;;14.02;58.02
77823;BME280;67013;49.730;17.292;2023-04-24T05:43:49;97284.88;;;14.00;57.79
77823;BME280;67013;49.730;17.292;2023-04-24T05:46:19;97285.94;;;13.98;57.79
77823;BME280;67013;49.730;17.292;2023-04-24T05:48:48;97288.46;;;13.98;57.65
77823;BME280;67013;49.730;17.292;2023-04-24T05:51:18;97286.59;;;13.95;57.38
77823;BME280;67013;49.730;17.292;2023-04-24T05:53:47;97285.20;;;13.94;57.30
77823;BME280;67013;49.730;17.292;2023-04-24T05:56:17;97289.75;;;13.92;57.44
77823;BME280;67013;49.730;17.292;2023-04-24T05:58:47;97288.46;;;13.91;57.44
77823;BME280;67013;49.730;17.292;2023-04-24T06:01:17;97287.98;;;13.90;57.38
77823;BME280;67013;49.730;17.292;2023-04-24T06:03:48;97293.69;;;13.90;57.32
77823;BME280;67013;49.730;17.292;2023-04-24T06:06:17;97294.48;;;13.89;57.45
77823;BME280;67013;49.730;17.292;2023-04-24T06:08:47;97293.16;;;13.88;57.21
77823;BME280;67013;49.730;17.292;2023-04-24T06:11:16;97288.67;;;13.87;57.41
77823;BME280;67013;49.730;17.292;2023-04-24T06:13:46;97292.05;;;13.87;57.27
77823;BME280;67013;49.730;17.292;2023-04-24T06:16:16;97291.52;;;13.87;57.39
77823;BME280;67013;49.730;17.292;2023-04-24T06:18:45;97291.12;;;13.86;57.26
77823;BME280;67013;49.730;17.292;2023-04-24T06:21:16;97292.27;;;13.85;57.47
77823;BME280;67013;49.730;17.292;2023-04-24T06:23:47;97294.02;;;13.85;57.62
77823;BME280;67013;49.730;17.292;2023-04-24T06:26:17;97296.95;;;13.85;58.04
77823;BME280;67013;49.730;17.292;2023-04-24T06:28:48;97295.83;;;13.86;58.08
77823;BME280;67013;49.730;17.292;2023-04-24T06:31:18;97297.77;;;13.84;58.66
77823;BME280;67013;49.730;17.292;2023-04-24T06:33:47;97299.52;;;13.81;58.85
77823;BME280;67013;49.730;17.292;2023-04-24T06:36:18;97298.70;;;13.77;59.39
77823;BME280;67013;49.730;17.292;2023-04-24T06:38:47;97298.17;;;13.71;59.86
77823;BME280;67013;49.730;17.292;2023-04-24T06:41:17;97296.44;;;13.66;59.85
77823;BME280;67013;49.730;17.292;2023-04-24T06:43:46;97294.76;;;13.64;60.53
77823;BME280;67013;49.730;17.292;2023-04-24T06:46:16;97294.02;;;13.66;60.71
77823;BME280;67013;49.730;17.292;2023-04-24T06:48:45;97292.39;;;13.68;60.97
77823;BME280;67013;49.730;17.292;2023-04-24T06:51:15;97290.34;;;13.71;61.84
77823;BME280;67013;49.730;17.292;2023-04-24T06:53:45;97287.34;;;13.73;61.62
77823;BME280;67013;49.730;17.292;2023-04-24T06:56:15;97285.11;;;13.73;62.16
77823;BME280;67013;49.730;17.292;2023-04-24T06:58:44;97285.05;;;13.73;63.13
77823;BME280;67013;49.730;17.292;2023-04-24T07:01:14;97280.85;;;13.72;62.63
77823;BME280;67013;49.730;17.292;2023-04-24T07:03:43;97280.50;;;13.68;63.43
77823;BME280;67013;49.730;17.292;2023-04-24T07:06:13;97280.29;;;13.62;64.34
77823;BME280;67013;49.730;17.292;2023-04-24T07:08:44;97278.67;;;13.54;65.01
77823;BME280;67013;49.730;17.292;2023-04-24T07:11:14;97275.05;;;13.47;64.63
77823;BME280;67013;49.730;17.292;2023-04-24T07:13:44;97276.32;;;13.41;64.66
77823;BME280;67013;49.730;17.292;2023-04-24T07:16:13;97279.17;;;13.34;65.01
77823;BME280;67013;49.730;17.292;2023-04-24T07:18:43;97274.82;;;13.25;64.95
77823;BME280;67013;49.730;17.292;2023-04-24T07:21:12;97272.55;;;13.17;64.99
77823;BME280;67013;49.730;17.292;2023-04-24T07:23:42;97269.34;;;13.08;64.97
77823;BME280;67013;49.730;17.292;2023-04-24T07:26:12;97268.19;;;13.02;65.08
77823;BME280;67013;49.730;17.292;2023-04-24T07:28:42;97262.98;;;12.99;65.05
77823;BME280;67013;49.730;17.292;2023-04-24T07:31:12;97259.05;;;12.98;65.08
77823;BME280;67013;49.730;17.292;2023-04-24T07:33:42;97255.29;;;12.97;65.11
77823;BME280;67013;49.730;17.292;2023-04-24T07:36:11;97254.40;;;12.97;65.28
77823;BME280;67013;49.730;17.292;2023-04-24T07:38:45;97251.73;;;12.94;65.14
77823;BME280;67013;49.730;17.292;2023-04-24T07:41:14;97249.70;;;12.92;65.06
77823;BME280;67013;49.730;17.292;2023-04-24T07:43:44;97248.21;;;12.90;65.22
77823;BME280;67013;49.730;17.292;2023-04-24T07:46:13;97251.48;;;12.89;65.48
77823;BME280;67013;49.730;17.292;2023-04-24T07:48:43;97254.64;;;12.88;65.86
77823;BME280;67013;49.730;17.292;2023-04-24T07:51:14;97248.66;;;12.89;65.66
77823;BME280;67013;49.730;17.292;2023-04-24T07:53:44;97245.95;;;12.90;65.75
77823;BME280;67013;49.730;17.292;2023-04-24T07:56:14;97250.86;;;12.89;65.84
77823;BME280;67013;49.730;17.292;2023-04-24T07:58:43;97251.14;;;12.88;65.79
77823;BME280;67013;49.730;17.292;2023-04-24T08:01:13;97255.73;;;12.88;65.50
77823;BME280;67013;49.730;17.292;2023-04-24T08:03:42;97253.27;;;12.88;65.36
77823;BME280;67013;49.730;17.292;2023-04-24T08:06:11;97251.48;;;12.89;65.51
77823;BME280;67013;49.730;17.292;2023-04-24T08:08:41;97253.58;;;12.92;65.72
77823;BME280;67013;49.730;17.292;2023-04-24T08:11:11;97256.73;;;12.98;65.45
77823;BME280;67013;49.730;17.292;2023-04-24T08:13:40;97254.74;;;13.06;65.27
77823;BME280;67013;49.730;17.292;2023-04-24T08:16:10;97250.48;;;13.16;65.02
77823;BME280;67013;49.730;17.292;2023-04-24T08:18:39;97251.54;;;13.24;64.78
77823;BME280;67013;49.730;17.292;2023-04-24T08:21:09;97250.21;;;13.30;63.63
77823;BME280;67013;49.730;17.292;2023-04-24T08:23:40;97248.01;;;13.36;63.22
77823;BME280;67013;49.730;17.292;2023-04-24T08:26:10;97245.42;;;13.43;63.64
77823;BME280;67013;49.730;17.292;2023-04-24T08:28:39;97244.15;;;13.50;64.37
77823;BME280;67013;49.730;17.292;2023-04-24T08:31:09;97245.13;;;13.58;64.82
77823;BME280;67013;49.730;17.292;2023-04-24T08:33:38;97250.16;;;13.65;65.27
77823;BME280;67013;49.730;17.292;2023-04-24T08:36:09;97246.95;;;13.72;65.24
77823;BME280;67013;49.730;17.292;2023-04-24T08:38:38;97248.31;;;13.79;65.11
77823;BME280;67013;49.730;17.292;2023-04-24T08:41:08;97250.75;;;13.86;64.89
77823;BME280;67013;49.730;17.292;2023-04-24T08:43:39;97250.73;;;13.91;64.07
77823;BME280;67013;49.730;17.292;2023-04-24T08:46:09;97251.17;;;13.95;63.45
77823;BME280;67013;49.730;17.292;2023-04-24T08:48:40;97246.63;;;14.00;63.80
77823;BME280;67013;49.730;17.292;2023-04-24T08:51:10;97248.50;;;14.07;63.81
77823;BME280;67013;49.730;17.292;2023-04-24T08:53:39;97249.92;;;14.13;64.00
77823;BME280;67013;49.730;17.292;2023-04-24T08:56:09;97251.10;;;14.18;64.22
77823;BME280;67013;49.730;17.292;2023-04-24T08:58:40;97250.81;;;14.22;64.13
77823;BME280;67013;49.730;17.292;2023-04-24T09:01:10;97249.74;;;14.25;63.16
77823;BME280;67013;49.730;17.292;2023-04-24T09:03:40;97257.55;;;14.27;61.60
77823;BME280;67013;49.730;17.292;2023-04-24T09:06:10;97257.56;;;14.31;63.12
77823;BME280;67013;49.730;17.292;2023-04-24T09:08:40;97261.11;;;14.33;64.44
77823;BME280;67013;49.730;17.292;2023-04-24T09:11:11;97263.84;;;14.37;65.14
77823;BME280;67013;49.730;17.292;2023-04-24T09:13:41;97261.66;;;14.41;65.34
77823;BME280;67013;49.730;17.292;2023-04-24T09:16:12;97263.04;;;14.48;65.92
77823;BME280;67013;49.730;17.292;2023-04-24T09:18:42;97264.89;;;14.55;66.19
77823;BME280;67013;49.730;17.292;2023-04-24T09:21:12;97264.77;;;14.63;66.33
77823;BME280;67013;49.730;17.292;2023-04-24T09:23:42;97267.59;;;14.71;66.52
77823;BME280;67013;49.730;17.292;2023-04-24T09:26:11;97269.56;;;14.80;66.49
77823;BME280;67013;49.730;17.292;2023-04-24T09:28:42;97267.17;;;14.89;66.11
77823;BME280;67013;49.730;17.292;2023-04-24T09:31:13;97267.77;;;14.97;65.90
77823;BME280;67013;49.730;17.292;2023-04-24T09:33:55;97271.30;;;15.05;65.93
77823;BME280;67013;49.730;17.292;2023-04-24T09:36:32;97269.83;;;15.10;66.63
77823;BME280;67013;49.730;17.292;2023-04-24T09:39:03;97272.36;;;15.17;66.80
77823;BME280;67013;49.730;17.292;2023-04-24T09:41:34;97273.84;;;15.25;67.03
77823;BME280;67013;49.730;17.292;2023-04-24T09:44:13;97274.19;;;15.32;67.06
77823;BME280;67013;49.730;17.292;2023-04-24T09:46:44;97273.89;;;15.40;67.13
77823;BME280;67013;49.730;17.292;2023-04-24T09:49:16;97270.54;;;15.46;66.65
77823;BME280;67013;49.730;17.292;2023-04-24T09:51:46;97268.66;;;15.46;64.80
77823;BME280;67013;49.730;17.292;2023-04-24T09:54:19;97269.78;;;15.45;63.60
77823;BME280;67013;49.730;17.292;2023-04-24T09:56:50;97268.58;;;15.40;61.91
77823;BME280;67013;49.730;17.292;2023-04-24T09:59:20;97266.11;;;15.32;62.15
77823;BME280;67013;49.730;17.292;2023-04-24T10:01:49;97267.36;;;15.26;62.88
77823;BME280;67013;49.730;17.292;2023-04-24T10:04:21;97267.53;;;15.20;63.97
77823;BME280;67013;49.730;17.292;2023-04-24T10:06:54;97267.64;;;15.14;64.22
77823;BME280;67013;49.730;17.292;2023-04-24T10:09:25;97272.84;;;15.10;64.25
77823;BME280;67013;49.730;17.292;2023-04-24T10:11:57;97267.76;;;15.07;63.78
77823;BME280;67013;49.730;17.292;2023-04-24T10:14:26;97264.16;;;15.04;64.33
77823;BME280;67013;49.730;17.292;2023-04-24T10:16:56;97262.92;;;15.04;64.73
77823;BME280;67013;49.730;17.292;2023-04-24T10:19:27;97260.98;;;15.04;64.72
77823;BME280;67013;49.730;17.292;2023-04-24T10:21:58;97260.60;;;15.03;64.97
77823;BME280;67013;49.730;17.292;2023-04-24T10:24:29;97259.21;;;15.03;65.14
77823;BME280;67013;49.730;17.292;2023-04-24T10:26:59;97256.69;;;15.02;64.68
77823;BME280;67013;49.730;17.292;2023-04-24T10:29:32;97259.71;;;15.02;64.27
77823;BME280;67013;49.730;17.292;2023-04-24T10:32:05;97261.02;;;15.01;64.96
77823;BME280;67013;49.730;17.292;2023-04-24T10:34:37;97260.52;;;15.01;65.51
77823;BME280;67013;49.730;17.292;2023-04-24T10:37:07;97262.30;;;15.02;65.26
77823;BME280;67013;49.730;17.292;2023-04-24T10:39:37;97262.20;;;15.01;65.86
77823;BME280;67013;49.730;17.292;2023-04-24T10:42:16;97261.84;;;15.01;66.16
77823;BME280;67013;49.730;17.292;2023-04-24T10:44:48;97265.04;;;15.04;66.15
77823;BME280;67013;49.730;17.292;2023-04-24T10:47:16;97265.85;;;15.08;65.30
77823;BME280;67013;49.730;17.292;2023-04-24T10:49:46;97266.90;;;15.11;65.41
77823;BME280;67013;49.730;17.292;2023-04-24T10:52:20;97267.86;;;15.17;65.30
77823;BME280;67013;49.730;17.292;2023-04-24T10:54:49;97269.23;;;15.24;65.47
77823;BME280;67013;49.730;17.292;2023-04-24T10:57:29;97271.21;;;15.29;65.82
77823;BME280;67013;49.730;17.292;2023-04-24T11:00:21;97271.57;;;15.34;65.61
77823;BME280;67013;49.730;17.292;2023-04-24T11:02:50;97268.31;;;15.38;65.28
77823;BME280;67013;49.730;17.292;2023-04-24T11:05:22;97267.59;;;15.41;65.32
77823;BME280;67013;49.730;17.292;2023-04-24T11:08:12;97267.27;;;15.46;65.21
77823;BME280;67013;49.730;17.292;2023-04-24T11:10:45;97266.17;;;15.49;65.34
77823;BME280;67013;49.730;17.292;2023-04-24T11:13:17;97263.83;;;15.51;65.47
77823;BME280;67013;49.730;17.292;2023-04-24T11:16:14;97265.27;;;15.55;65.78
77823;BME280;67013;49.730;17.292;2023-04-24T11:18:44;97263.29;;;15.60;66.11
77823;BME280;67013;49.730;17.292;2023-04-24T11:21:19;97266.61;;;15.63;66.28
77823;BME280;67013;49.730;17.292;2023-04-24T11:23:49;97266.41;;;15.67;66.19
77823;BME280;67013;49.730;17.292;2023-04-24T11:26:22;97270.54;;;15.70;66.57
77823;BME280;67013;49.730;17.292;2023-04-24T11:28:52;97268.65;;;15.73;66.69
77823;BME280;67013;49.730;17.292;2023-04-24T11:31:39;97273.35;;;15.75;66.70
77823;BME280;67013;49.730;17.292;2023-04-24T11:34:13;97270.89;;;15.76;66.86
77823;BME280;67013;49.730;17.292;2023-04-24T11:36:44;97277.59;;;15.76;66.58
77823;BME280;67013;49.730;17.292;2023-04-24T11:39:14;97276.71;;;15.75;66.74
77823;BME280;67013;49.730;17.292;2023-04-24T11:41:44;97279.08;;;15.74;66.45
77823;BME280;67013;49.730;17.292;2023-04-24T11:44:14;97277.08;;;15.72;66.31
77823;BME280;67013;49.730;17.292;2023-04-24T11:46:44;97279.25;;;15.69;66.40
77823;BME280;67013;49.730;17.292;2023-04-24T11:49:13;97278.10;;;15.70;66.09
77823;BME280;67013;49.730;17.292;2023-04-24T11:51:43;97277.90;;;15.72;65.93
77823;BME280;67013;49.730;17.292;2023-04-24T11:54:12;97278.59;;;15.73;65.60
77823;BME280;67013;49.730;17.292;2023-04-24T11:56:46;97279.23;;;15.74;65.79
77823;BME280;67013;49.730;17.292;2023-04-24T11:59:15;97279.15;;;15.73;65.61
77823;BME280;67013;49.730;17.292;2023-04-24T12:01:46;97282.30;;;15.69;65.40
77823;BME280;67013;49.730;17.292;2023-04-24T12:04:17;97283.27;;;15.65;65.55
77823;BME280;67013;49.730;17.292;2023-04-24T12:07:02;97285.41;;;15.61;65.42
77823;BME280;67013;49.730;17.292;2023-04-24T12:09:43;97285.05;;;15.57;65.36
77823;BME280;67013;49.730;17.292;2023-04-24T12:12:15;97280.52;;;15.51;65.22
77823;BME280;67013;49.730;17.292;2023-04-24T12:14:48;97280.43;;;15.47;65.26
77823;BME280;67013;49.730;17.292;2023-04-24T12:17:23;97282.60;;;15.43;65.15
77823;BME280;67013;49.730;17.292;2023-04-24T12:19:56;97283.94;;;15.42;65.28
77823;BME280;67013;49.730;17.292;2023-04-24T12:22:26;97280.46;;;15.42;65.24
77823;BME280;67013;49.730;17.292;2023-04-24T12:25:04;97278.33;;;15.43;65.21
77823;BME280;67013;49.730;17.292;2023-04-24T12:27:34;97282.65;;;15.43;65.43
77823;BME280;67013;49.730;17.292;2023-04-24T12:30:05;97277.60;;;15.43;65.44
77823;BME280;67013;49.730;17.292;2023-04-24T12:32:35;97277.67;;;15.42;65.40
77823;BME280;67013;49.730;17.292;2023-04-24T12:35:10;97277.70;;;15.42;65.24
77823;BME280;67013;49.730;17.292;2023-04-24T12:37:41;97279.71;;;15.41;65.50
77823;BME280;67013;49.730;17.292;2023-04-24T12:40:12;97279.81;;;15.40;65.50
77823;BME280;67013;49.730;17.292;2023-04-24T12:42:45;97280.50;;;15.39;65.57
77823;BME280;67013;49.730;17.292;2023-04-24T12:45:16;97283.59;;;15.38;65.74
77823;BME280;67013;49.730;17.292;2023-04-24T12:47:46;97283.91;;;15.38;66.04
77823;BME280;67013;49.730;17.292;2023-04-24T12:50:17;97286.81;;;15.40;66.06
77823;BME280;67013;49.730;17.292;2023-04-24T12:52:47;97290.48;;;15.42;66.01
77823;BME280;67013;49.730;17.292;2023-04-24T12:55:17;97288.54;;;15.42;66.03
77823;BME280;67013;49.730;17.292;2023-04-24T12:57:46;97290.80;;;15.42;66.05
77823;BME280;67013;49.730;17.292;2023-04-24T13:00:17;97286.98;;;15.39;65.89
77823;BME280;67013;49.730;17.292;2023-04-24T13:02:47;97289.77;;;15.36;65.83
77823;BME280;67013;49.730;17.292;2023-04-24T13:05:16;97287.83;;;15.33;65.88
77823;BME280;67013;49.730;17.292;2023-04-24T13:07:46;97285.53;;;15.29;65.75